createdAt,value
2019-06-01T00:02:09.696Z,101865.34
2019-06-01T00:04:35.143Z,101862.48
2019-06-01T00:07:00.655Z,101862.58
2019-06-01T00:09:26.659Z,101862.91
2019-06-01T00:11:52.137Z,101868.38
2019-06-01T00:14:17.605Z,101862.03
2019-06-01T00:16:44.085Z,101857.23
2019-06-01T00:19:09.782Z,101851.11
2019-06-01T00:21:35.212Z,101852.20
2019-06-01T00:24:00.668Z,101850.39
2019-06-01T00:26:26.158Z,101858.84
2019-06-01T00:28:53.017Z,101854.77
2019-06-01T00:31:18.594Z,101852.09
2019-06-01T00:33:45.324Z,101858.95
2019-06-01T00:36:11.044Z,101857.25
2019-06-01T00:38:36.767Z,101858.09
2019-06-01T00:41:02.250Z,101852.65
2019-06-01T00:43:28.011Z,101852.44
2019-06-01T00:45:53.468Z,101855.31
2019-06-01T00:48:18.908Z,101853.80
2019-06-01T00:50:44.928Z,101851.62
2019-06-01T00:53:10.374Z,101855.16
2019-06-01T00:55:35.815Z,101847.56
2019-06-01T00:58:03.551Z,101850.64
2019-06-01T01:00:42.910Z,101850.02
2019-06-01T01:02:56.192Z,101851.95
2019-06-01T01:05:23.632Z,101849.25
2019-06-01T01:07:49.129Z,101843.38
2019-06-01T01:10:16.163Z,101845.06
2019-06-01T01:12:59.178Z,101847.43
2019-06-01T01:15:35.757Z,101843.80
2019-06-01T01:18:01.202Z,101839.83
2019-06-01T01:20:27.006Z,101840.89
2019-06-01T01:22:52.465Z,101846.46
2019-06-01T01:25:18.105Z,101848.17
2019-06-01T01:27:43.843Z,101852.65
2019-06-01T01:30:09.538Z,101848.59
2019-06-01T01:32:34.944Z,101847.29
2019-06-01T01:35:00.423Z,101848.58
2019-06-01T01:37:25.797Z,101855.62
2019-06-01T01:39:52.188Z,101853.83
2019-06-01T01:42:17.750Z,101851.25
2019-06-01T01:44:43.228Z,101855.97
2019-06-01T01:47:08.621Z,101839.70
2019-06-01T01:49:34.252Z,101847.29
2019-06-01T01:51:59.968Z,101846.63
2019-06-01T01:54:25.698Z,101843.84
2019-06-01T01:56:52.100Z,101845.34
2019-06-01T01:59:17.629Z,101846.30
2019-06-01T02:01:43.030Z,101838.84
2019-06-01T02:04:08.520Z,101844.06
2019-06-01T02:06:33.995Z,101835.35
2019-06-01T02:08:59.490Z,101847.66
2019-06-01T02:11:25.155Z,101845.86
2019-06-01T02:13:51.535Z,101839.23
2019-06-01T02:16:17.156Z,101847.60
2019-06-01T02:18:42.626Z,101841.48
2019-06-01T02:21:08.104Z,101838.68
2019-06-01T02:23:33.455Z,101836.09
2019-06-01T02:25:59.410Z,101840.26
2019-06-01T02:28:24.890Z,101834.14
2019-06-01T02:30:50.388Z,101837.46
2019-06-01T02:33:15.834Z,101838.44
2019-06-01T02:35:41.304Z,101835.42
2019-06-01T02:38:06.844Z,101837.64
2019-06-01T02:40:32.324Z,101838.27
2019-06-01T02:42:59.317Z,101845.52
2019-06-01T02:45:25.526Z,101831.23
2019-06-01T02:47:51.009Z,101832.78
2019-06-01T02:50:16.692Z,101831.08
2019-06-01T02:52:42.181Z,101818.46
2019-06-01T02:55:09.275Z,101820.42
2019-06-01T02:57:34.747Z,101820.63
2019-06-01T03:00:09.516Z,101819.28
2019-06-01T03:02:35.441Z,101832.52
2019-06-01T03:05:01.227Z,101827.34
2019-06-01T03:07:30.843Z,101827.19
2019-06-01T03:09:58.744Z,101826.58
2019-06-01T03:12:27.864Z,101832.66
2019-06-01T03:14:56.525Z,101827.63
2019-06-01T03:17:25.422Z,101828.69
2019-06-01T03:19:55.073Z,101824.82
2019-06-01T03:22:23.636Z,101818.28
2019-06-01T03:24:53.227Z,101818.62
2019-06-01T03:27:22.727Z,101820.55
2019-06-01T03:29:56.821Z,101826.75
2019-06-01T03:32:35.193Z,101822.61
2019-06-01T03:34:49.993Z,101837.30
2019-06-01T03:37:15.937Z,101830.94
2019-06-01T03:39:41.905Z,101837.75
2019-06-01T03:42:08.045Z,101838.49
2019-06-01T03:44:33.619Z,101836.25
2019-06-01T03:46:59.088Z,101836.55
2019-06-01T03:49:24.551Z,101840.02
2019-06-01T03:51:50.077Z,101837.14
2019-06-01T03:54:15.442Z,101842.59
2019-06-01T03:56:40.966Z,101844.62
2019-06-01T03:59:07.292Z,101844.41
2019-06-01T04:01:32.806Z,101842.45
2019-06-01T04:03:58.528Z,101839.57
2019-06-01T04:06:24.699Z,101837.17
2019-06-01T04:08:50.132Z,101841.25
2019-06-01T04:11:15.608Z,101842.82
2019-06-01T04:13:44.203Z,101838.67
2019-06-01T04:16:10.068Z,101845.60
2019-06-01T04:18:35.548Z,101846.47
2019-06-01T04:21:02.393Z,101847.48
2019-06-01T04:23:28.195Z,101847.91
2019-06-01T04:25:53.668Z,101863.73
2019-06-01T04:28:19.126Z,101851.78
2019-06-01T04:30:44.602Z,101862.20
2019-06-01T04:33:11.040Z,101855.54
2019-06-01T04:35:36.468Z,101856.74
2019-06-01T04:38:03.023Z,101857.75
2019-06-01T04:40:28.587Z,101853.47
2019-06-01T04:42:54.117Z,101858.83
2019-06-01T04:45:19.576Z,101851.23
2019-06-01T04:47:45.031Z,101853.73
2019-06-01T04:50:11.138Z,101856.74
2019-06-01T04:52:36.673Z,101848.83
2019-06-01T04:55:02.239Z,101850.78
2019-06-01T04:57:27.625Z,101852.48
2019-06-01T04:59:53.116Z,101841.56
2019-06-01T05:02:18.853Z,101848.02
2019-06-01T05:04:44.679Z,101844.90
2019-06-01T05:07:13.472Z,101848.77
2019-06-01T05:09:39.109Z,101852.22
2019-06-01T05:12:05.261Z,101848.45
2019-06-01T05:14:30.746Z,101848.05
2019-06-01T05:16:56.456Z,101846.45
2019-06-01T05:19:21.920Z,101839.84
2019-06-01T05:21:47.419Z,101837.60
2019-06-01T05:24:13.155Z,101838.88
2019-06-01T05:26:38.625Z,101839.36
2019-06-01T05:29:04.013Z,101838.45
2019-06-01T05:31:29.474Z,101844.72
2019-06-01T05:33:55.586Z,101844.38
2019-06-01T05:36:21.087Z,101834.00
2019-06-01T05:38:46.532Z,101842.34
2019-06-01T05:41:13.262Z,101838.08
2019-06-01T05:43:39.321Z,101842.55
2019-06-01T05:46:04.885Z,101847.67
2019-06-01T05:48:30.885Z,101839.20
2019-06-01T05:50:56.464Z,101842.33
2019-06-01T05:53:23.108Z,101845.29
2019-06-01T05:55:48.678Z,101843.97
2019-06-01T05:58:15.089Z,101848.81
2019-06-01T06:00:43.050Z,101836.41
2019-06-01T06:03:08.412Z,101842.47
2019-06-01T06:05:33.847Z,101835.86
2019-06-01T06:07:59.630Z,101829.72
2019-06-01T06:10:25.115Z,101830.63
2019-06-01T06:12:50.583Z,101837.09
2019-06-01T06:15:17.512Z,101844.23
2019-06-01T06:17:43.087Z,101846.60
2019-06-01T06:20:08.977Z,101855.60
2019-06-01T06:22:34.367Z,101851.45
2019-06-01T06:24:59.889Z,101861.88
2019-06-01T06:27:25.637Z,101861.47
2019-06-01T06:30:02.312Z,101866.53
2019-06-01T06:32:28.091Z,101863.88
2019-06-01T06:34:56.856Z,101859.92
2019-06-01T06:37:22.352Z,101862.27
2019-06-01T06:39:48.084Z,101854.98
2019-06-01T06:42:14.163Z,101851.00
2019-06-01T06:44:46.489Z,101854.67
2019-06-01T06:47:11.972Z,101860.88
2019-06-01T06:49:37.688Z,101863.21
2019-06-01T06:52:03.427Z,101856.78
2019-06-01T06:54:28.888Z,101844.77
2019-06-01T06:56:57.813Z,101852.42
2019-06-01T06:59:24.484Z,101861.03
2019-06-01T07:01:56.236Z,101854.45
2019-06-01T07:04:23.344Z,101843.00
2019-06-01T07:06:48.764Z,101851.87
2019-06-01T07:09:14.893Z,101856.36
2019-06-01T07:11:40.636Z,101854.43
2019-06-01T07:14:06.184Z,101844.46
2019-06-01T07:16:34.259Z,101844.14
2019-06-01T07:18:59.824Z,101852.42
2019-06-01T07:21:25.876Z,101853.76
2019-06-01T07:23:51.581Z,101845.47
2019-06-01T07:26:17.265Z,101844.66
2019-06-01T07:28:44.632Z,101843.02
2019-06-01T07:31:10.123Z,101850.54
2019-06-01T07:33:35.546Z,101841.69
2019-06-01T07:36:01.311Z,101844.09
2019-06-01T07:38:27.028Z,101838.55
2019-06-01T07:40:52.639Z,101837.71
2019-06-01T07:43:18.197Z,101846.51
2019-06-01T07:45:46.766Z,101841.96
2019-06-01T07:48:12.617Z,101843.14
2019-06-01T07:50:37.999Z,101844.34
2019-06-01T07:53:04.590Z,101839.23
2019-06-01T07:55:34.987Z,101845.20
2019-06-01T07:58:00.686Z,101845.12
2019-06-01T08:00:27.212Z,101850.80
2019-06-01T08:02:52.879Z,101855.61
2019-06-01T08:05:33.190Z,101846.98
2019-06-01T08:07:58.803Z,101845.44
2019-06-01T08:10:24.915Z,101834.58
2019-06-01T08:12:51.934Z,101845.26
2019-06-01T08:15:19.415Z,101838.92
2019-06-01T08:17:45.239Z,101832.55
2019-06-01T08:20:12.576Z,101837.78
2019-06-01T08:22:38.175Z,101832.25
2019-06-01T08:25:04.036Z,101833.48
2019-06-01T08:27:30.611Z,101838.45
2019-06-01T08:29:56.077Z,101834.27
2019-06-01T08:32:22.680Z,101833.78
2019-06-01T08:34:48.203Z,101824.33
2019-06-01T08:37:14.179Z,101827.19
2019-06-01T08:39:39.646Z,101827.51
2019-06-01T08:42:05.145Z,101827.17
2019-06-01T08:44:31.685Z,101824.53
2019-06-01T08:46:57.223Z,101818.59
2019-06-01T08:49:23.913Z,101820.97
2019-06-01T08:51:49.411Z,101824.03
2019-06-01T08:54:16.667Z,101823.56
2019-06-01T08:56:42.226Z,101824.53
2019-06-01T08:59:07.947Z,101825.33
2019-06-01T09:01:34.941Z,101818.27
2019-06-01T09:04:00.575Z,101822.02
2019-06-01T09:06:26.733Z,101822.75
2019-06-01T09:08:52.632Z,101825.34
2019-06-01T09:11:18.155Z,101828.05
2019-06-01T09:13:43.610Z,101827.72
2019-06-01T09:16:09.175Z,101822.73
2019-06-01T09:18:35.832Z,101811.81
2019-06-01T09:21:01.633Z,101810.80
2019-06-01T09:23:27.624Z,101805.62
2019-06-01T09:25:53.170Z,101808.41
2019-06-01T09:28:18.613Z,101810.09
2019-06-01T09:30:44.115Z,101807.33
2019-06-01T09:33:09.871Z,101803.46
2019-06-01T09:35:52.589Z,101800.84
2019-06-01T09:38:13.594Z,101796.81
2019-06-01T09:40:39.298Z,101794.08
2019-06-01T09:43:05.092Z,101797.08
2019-06-01T09:45:30.532Z,101797.66
2019-06-01T09:47:56.005Z,101803.68
2019-06-01T09:50:21.995Z,101802.36
2019-06-01T09:52:47.448Z,101798.86
2019-06-01T09:55:25.198Z,101800.38
2019-06-01T09:57:50.575Z,101795.02
2019-06-01T10:00:18.024Z,101795.88
2019-06-01T10:02:43.490Z,101799.98
2019-06-01T10:05:09.066Z,101799.63
2019-06-01T10:07:34.936Z,101804.61
2019-06-01T10:10:00.514Z,101799.98
2019-06-01T10:12:26.169Z,101789.84
2019-06-01T10:14:51.635Z,101787.21
2019-06-01T10:17:17.409Z,101792.23
2019-06-01T10:19:43.066Z,101790.29
2019-06-01T10:22:08.616Z,101791.20
2019-06-01T10:24:35.135Z,101784.57
2019-06-01T10:27:00.629Z,101786.80
2019-06-01T10:29:26.126Z,101790.23
2019-06-01T10:31:51.483Z,101783.20
2019-06-01T10:34:17.128Z,101785.09
2019-06-01T10:36:42.838Z,101785.60
2019-06-01T10:39:09.302Z,101789.03
2019-06-01T10:41:35.319Z,101785.71
2019-06-01T10:44:01.173Z,101775.97
2019-06-01T10:46:26.738Z,101774.49
2019-06-01T10:48:52.460Z,101782.60
2019-06-01T10:51:17.966Z,101779.20
2019-06-01T10:53:43.881Z,101771.28
2019-06-01T10:56:09.325Z,101774.51
2019-06-01T10:58:56.649Z,101776.86
2019-06-01T11:01:08.424Z,101773.13
2019-06-01T11:03:34.617Z,101766.78
2019-06-01T11:06:00.174Z,101765.56
2019-06-01T11:08:25.752Z,101763.06
2019-06-01T11:10:52.001Z,101759.56
2019-06-01T11:13:17.619Z,101757.65
2019-06-01T11:15:43.366Z,101752.15
2019-06-01T11:18:18.241Z,101756.44
2019-06-01T11:20:43.825Z,101762.66
2019-06-01T11:23:09.462Z,101753.66
2019-06-01T11:25:35.685Z,101735.76
2019-06-01T11:28:01.127Z,101741.50
2019-06-01T11:30:26.784Z,101733.91
2019-06-01T11:32:52.512Z,101734.14
2019-06-01T11:35:18.092Z,101730.95
2019-06-01T11:37:44.542Z,101732.66
2019-06-01T11:40:10.433Z,101734.92
2019-06-01T11:42:38.899Z,101732.70
2019-06-01T11:45:04.937Z,101731.36
2019-06-01T11:47:30.813Z,101723.71
2019-06-01T11:49:56.250Z,101727.38
2019-06-01T11:52:22.720Z,101721.75
2019-06-01T11:54:48.193Z,101720.05
2019-06-01T11:57:14.183Z,101722.27
2019-06-01T11:59:39.693Z,101710.69
2019-06-01T12:02:05.203Z,101713.83
2019-06-01T12:04:30.585Z,101707.36
2019-06-01T12:06:55.970Z,101710.20
2019-06-01T12:09:22.010Z,101706.50
2019-06-01T12:11:47.311Z,101700.85
2019-06-01T12:14:13.025Z,101698.88
2019-06-01T12:16:38.512Z,101694.33
2019-06-01T12:19:08.203Z,101687.02
2019-06-01T12:21:34.318Z,101686.16
2019-06-01T12:24:00.052Z,101688.95
2019-06-01T12:26:25.519Z,101684.40
2019-06-01T12:28:50.936Z,101679.92
2019-06-01T12:31:16.404Z,101686.97
2019-06-01T12:33:42.047Z,101682.41
2019-06-01T12:36:07.582Z,101677.09
2019-06-01T12:38:36.058Z,101676.22
2019-06-01T12:41:04.692Z,101674.81
2019-06-01T12:43:30.203Z,101671.45
2019-06-01T12:46:06.935Z,101669.16
2019-06-01T12:48:22.729Z,101659.20
2019-06-01T12:50:50.792Z,101655.25
2019-06-01T12:53:16.459Z,101658.61
2019-06-01T12:55:42.667Z,101655.02
2019-06-01T12:58:08.063Z,101653.58
2019-06-01T13:00:33.780Z,101653.83
2019-06-01T13:03:06.934Z,101651.56
2019-06-01T13:05:26.434Z,101654.63
2019-06-01T13:08:01.738Z,101658.38
2019-06-01T13:10:21.677Z,101645.04
2019-06-01T13:12:54.125Z,101651.23
2019-06-01T13:15:20.158Z,101638.63
2019-06-01T13:17:45.632Z,101636.94
2019-06-01T13:20:11.294Z,101626.17
2019-06-01T13:22:41.948Z,101625.28
2019-06-01T13:25:13.678Z,101632.03
2019-06-01T13:27:40.964Z,101626.95
2019-06-01T13:30:07.488Z,101630.61
2019-06-01T13:32:33.262Z,101619.17
2019-06-01T13:34:58.984Z,101618.08
2019-06-01T13:37:24.478Z,101624.00
2019-06-01T13:39:55.793Z,101618.01
2019-06-01T13:42:17.373Z,101619.17
2019-06-01T13:44:43.347Z,101611.44
2019-06-01T13:47:08.842Z,101606.23
2019-06-01T13:49:34.571Z,101608.56
2019-06-01T13:51:59.950Z,101611.36
2019-06-01T13:54:25.407Z,101602.91
2019-06-01T13:56:51.081Z,101598.91
2019-06-01T13:59:21.416Z,101601.23
2019-06-01T14:01:51.381Z,101596.30
2019-06-01T14:04:17.363Z,101593.72
2019-06-01T14:06:45.123Z,101586.75
2019-06-01T14:09:10.677Z,101583.67
2019-06-01T14:11:36.394Z,101590.16
2019-06-01T14:14:07.199Z,101584.20
2019-06-01T14:16:32.804Z,101580.00
2019-06-01T14:18:58.301Z,101583.45
2019-06-01T14:21:23.968Z,101583.20
2019-06-01T14:23:50.132Z,101577.67
2019-06-01T14:26:15.561Z,101574.55
2019-06-01T14:28:41.057Z,101578.70
2019-06-01T14:31:06.911Z,101568.20
2019-06-01T14:33:35.371Z,101567.48
2019-06-01T14:36:00.910Z,101570.67
2019-06-01T14:38:26.461Z,101574.19
2019-06-01T14:40:53.586Z,101574.55
2019-06-01T14:43:19.128Z,101556.72
2019-06-01T14:45:44.748Z,101561.89
2019-06-01T14:48:10.234Z,101559.77
2019-06-01T14:50:35.656Z,101558.57
2019-06-01T14:53:00.990Z,101546.01
2019-06-01T14:55:26.449Z,101559.14
2019-06-01T14:57:53.952Z,101553.83
2019-06-01T15:00:20.624Z,101561.30
2019-06-01T15:02:46.052Z,101549.34
2019-06-01T15:05:12.577Z,101551.66
2019-06-01T15:07:38.131Z,101552.61
2019-06-01T15:10:03.735Z,101548.27
2019-06-01T15:12:29.234Z,101546.06
2019-06-01T15:14:55.521Z,101542.55
2019-06-01T15:17:23.664Z,101543.64
2019-06-01T15:19:49.970Z,101540.22
2019-06-01T15:22:15.734Z,101538.53
2019-06-01T15:24:41.508Z,101526.58
2019-06-01T15:27:07.029Z,101531.48
2019-06-01T15:29:32.501Z,101529.23
2019-06-01T15:31:58.110Z,101516.41
2019-06-01T15:34:23.655Z,101526.82
2019-06-01T15:36:49.296Z,101522.04
2019-06-01T15:39:24.352Z,101523.44
2019-06-01T15:41:42.059Z,101518.19
2019-06-01T15:44:07.849Z,101517.71
2019-06-01T15:46:33.919Z,101507.11
2019-06-01T15:49:00.163Z,101515.78
2019-06-01T15:51:26.213Z,101502.84
2019-06-01T15:53:52.916Z,101505.99
2019-06-01T15:56:18.808Z,101502.13
2019-06-01T15:58:53.098Z,101500.17
2019-06-01T16:01:11.621Z,101496.61
2019-06-01T16:03:37.261Z,101494.70
2019-06-01T16:06:03.480Z,101489.92
2019-06-01T16:08:29.453Z,101496.94
2019-06-01T16:10:55.232Z,101490.41
2019-06-01T16:13:20.969Z,101484.27
2019-06-01T16:15:46.597Z,101492.03
2019-06-01T16:18:12.208Z,101482.02
2019-06-01T16:20:38.012Z,101483.04
2019-06-01T16:23:05.047Z,101479.91
2019-06-01T16:25:31.038Z,101483.33
2019-06-01T16:27:56.765Z,101474.05
2019-06-01T16:30:29.303Z,101482.16
2019-06-01T16:32:54.774Z,101470.84
2019-06-01T16:35:20.480Z,101476.55
2019-06-01T16:37:46.064Z,101477.48
2019-06-01T16:40:12.923Z,101469.22
2019-06-01T16:42:38.459Z,101470.06
2019-06-01T16:45:04.255Z,101475.17
2019-06-01T16:47:29.923Z,101473.52
2019-06-01T16:49:55.810Z,101470.20
2019-06-01T16:52:21.779Z,101469.02
2019-06-01T16:54:47.243Z,101466.00
2019-06-01T16:57:13.418Z,101466.30
2019-06-01T16:59:38.909Z,101462.59
2019-06-01T17:02:05.955Z,101460.92
2019-06-01T17:04:31.600Z,101459.75
2019-06-01T17:06:57.130Z,101456.78
2019-06-01T17:09:23.139Z,101450.28
2019-06-01T17:11:49.977Z,101451.50
2019-06-01T17:14:15.767Z,101452.99
2019-06-01T17:16:41.299Z,101452.12
2019-06-01T17:19:07.987Z,101462.60
2019-06-01T17:21:33.529Z,101459.73
2019-06-01T17:23:59.510Z,101456.06
2019-06-01T17:26:25.297Z,101458.81
2019-06-01T17:28:51.052Z,101452.91
2019-06-01T17:31:16.935Z,101446.37
2019-06-01T17:33:42.645Z,101449.21
2019-06-01T17:36:08.978Z,101446.66
2019-06-01T17:38:34.706Z,101447.50
2019-06-01T17:41:00.381Z,101441.30
2019-06-01T17:43:25.864Z,101441.34
2019-06-01T17:45:51.756Z,101438.52
2019-06-01T17:48:25.504Z,101436.27
2019-06-01T17:50:45.688Z,101437.09
2019-06-01T17:53:11.151Z,101431.09
2019-06-01T17:55:39.066Z,101428.33
2019-06-01T17:58:05.756Z,101433.20
2019-06-01T18:00:31.371Z,101424.70
2019-06-01T18:02:56.894Z,101430.36
2019-06-01T18:05:22.352Z,101433.19
2019-06-01T18:07:47.816Z,101434.28
2019-06-01T18:10:13.247Z,101426.99
2019-06-01T18:12:38.879Z,101429.02
2019-06-01T18:15:06.084Z,101425.50
2019-06-01T18:17:31.759Z,101423.25
2019-06-01T18:19:57.656Z,101428.08
2019-06-01T18:22:23.123Z,101424.45
2019-06-01T18:24:49.242Z,101421.95
2019-06-01T18:27:15.205Z,101423.98
2019-06-01T18:29:48.641Z,101425.11
2019-06-01T18:32:12.128Z,101420.39
2019-06-01T18:34:37.644Z,101420.09
2019-06-01T18:37:03.245Z,101422.86
2019-06-01T18:39:28.743Z,101423.21
2019-06-01T18:41:54.437Z,101416.17
2019-06-01T18:44:19.837Z,101423.79
2019-06-01T18:46:45.587Z,101422.44
2019-06-01T18:49:11.945Z,101418.75
2019-06-01T18:51:37.484Z,101414.84
2019-06-01T18:54:04.149Z,101421.61
2019-06-01T18:56:29.871Z,101419.65
2019-06-01T18:58:55.313Z,101420.22
2019-06-01T19:01:21.318Z,101422.23
2019-06-01T19:03:46.879Z,101411.79
2019-06-01T19:06:12.410Z,101408.72
2019-06-01T19:08:37.878Z,101409.59
2019-06-01T19:11:03.386Z,101414.97
2019-06-01T19:13:28.836Z,101407.65
2019-06-01T19:15:54.273Z,101403.68
2019-06-01T19:18:19.857Z,101409.34
2019-06-01T19:20:45.371Z,101410.47
2019-06-01T19:23:10.898Z,101402.83
2019-06-01T19:25:36.552Z,101403.42
2019-06-01T19:28:02.025Z,101402.56
2019-06-01T19:30:42.350Z,101401.70
2019-06-01T19:33:11.826Z,101399.74
2019-06-01T19:35:36.867Z,101401.41
2019-06-01T19:38:03.879Z,101403.12
2019-06-01T19:40:35.556Z,101396.33
2019-06-01T19:43:01.383Z,101404.53
2019-06-01T19:45:29.539Z,101403.08
2019-06-01T19:47:53.911Z,101406.70
2019-06-01T19:50:19.431Z,101403.06
2019-06-01T19:52:45.347Z,101410.11
2019-06-01T19:55:10.852Z,101406.29
2019-06-01T19:57:36.327Z,101409.14
2019-06-01T20:00:01.808Z,101405.20
2019-06-01T20:02:33.614Z,101402.64
2019-06-01T20:04:54.882Z,101407.80
2019-06-01T20:07:21.383Z,101410.19
2019-06-01T20:09:47.116Z,101409.39
2019-06-01T20:12:16.362Z,101414.38
2019-06-01T20:14:40.284Z,101423.34
2019-06-01T20:17:05.763Z,101415.25
2019-06-01T20:19:31.330Z,101417.11
2019-06-01T20:21:56.778Z,101412.09
2019-06-01T20:24:22.233Z,101418.23
2019-06-01T20:26:49.396Z,101412.46
2019-06-01T20:29:15.636Z,101409.08
2019-06-01T20:31:41.223Z,101409.34
2019-06-01T20:34:06.713Z,101408.48
2019-06-01T20:36:32.209Z,101406.74
2019-06-01T20:38:57.907Z,101410.94
2019-06-01T20:41:25.638Z,101408.96
2019-06-01T20:43:53.156Z,101404.50
2019-06-01T20:46:18.904Z,101410.09
2019-06-01T20:48:44.420Z,101407.25
2019-06-01T20:51:09.886Z,101411.67
2019-06-01T20:53:35.694Z,101409.63
2019-06-01T20:56:01.427Z,101400.52
2019-06-01T20:58:26.874Z,101404.55
2019-06-01T21:00:52.328Z,101409.86
2019-06-01T21:03:17.813Z,101407.55
2019-06-01T21:05:43.230Z,101404.54
2019-06-01T21:08:08.706Z,101405.98
2019-06-01T21:10:34.201Z,101405.00
2019-06-01T21:12:59.665Z,101403.83
2019-06-01T21:15:25.467Z,101399.00
2019-06-01T21:17:51.192Z,101399.75
2019-06-01T21:20:23.309Z,101401.81
2019-06-01T21:22:44.878Z,101397.74
2019-06-01T21:25:11.056Z,101392.50
2019-06-01T21:27:36.729Z,101398.83
2019-06-01T21:30:02.222Z,101399.77
2019-06-01T21:32:27.734Z,101392.59
2019-06-01T21:34:53.131Z,101388.69
2019-06-01T21:37:19.347Z,101392.08
2019-06-01T21:39:44.780Z,101391.33
2019-06-01T21:42:10.253Z,101383.54
2019-06-01T21:44:35.713Z,101380.73
2019-06-01T21:47:01.151Z,101380.11
2019-06-01T21:49:26.964Z,101381.14
2019-06-01T21:51:53.154Z,101375.38
2019-06-01T21:54:20.051Z,101370.95
2019-06-01T21:56:45.653Z,101368.75
2019-06-01T21:59:11.403Z,101372.49
2019-06-01T22:01:36.842Z,101372.02
2019-06-01T22:04:02.312Z,101373.11
2019-06-01T22:06:27.817Z,101369.37
2019-06-01T22:08:53.689Z,101359.59
2019-06-01T22:11:19.446Z,101356.00
2019-06-01T22:13:45.003Z,101359.59
2019-06-01T22:16:10.444Z,101350.17
2019-06-01T22:18:35.911Z,101359.06
2019-06-01T22:21:01.382Z,101354.74
2019-06-01T22:23:28.048Z,101352.47
2019-06-01T22:25:53.682Z,101350.94
2019-06-01T22:28:20.331Z,101352.34
2019-06-01T22:30:45.808Z,101350.92
2019-06-01T22:33:11.191Z,101352.09
2019-06-01T22:35:36.640Z,101349.98
2019-06-01T22:38:02.015Z,101350.30
2019-06-01T22:40:27.533Z,101344.35
2019-06-01T22:42:53.021Z,101343.92
2019-06-01T22:45:18.478Z,101346.55
2019-06-01T22:47:43.908Z,101346.16
2019-06-01T22:50:09.698Z,101349.41
2019-06-01T22:52:35.450Z,101338.05
2019-06-01T22:55:00.931Z,101338.23
2019-06-01T22:57:26.698Z,101337.84
2019-06-01T22:59:52.205Z,101341.66
2019-06-01T23:02:17.644Z,101333.00
2019-06-01T23:04:43.069Z,101334.66
2019-06-01T23:07:08.539Z,101337.41
2019-06-01T23:09:33.996Z,101337.70
2019-06-01T23:11:59.482Z,101327.89
2019-06-01T23:14:25.274Z,101331.66
2019-06-01T23:16:50.889Z,101327.43
2019-06-01T23:19:16.583Z,101324.63
2019-06-01T23:21:42.290Z,101328.70
2019-06-01T23:24:07.778Z,101325.26
2019-06-01T23:26:35.336Z,101318.48
2019-06-01T23:29:00.704Z,101315.27
2019-06-01T23:31:26.317Z,101313.62
2019-06-01T23:33:51.663Z,101312.16
2019-06-01T23:36:17.575Z,101312.91
2019-06-01T23:38:43.033Z,101311.25
2019-06-01T23:41:08.528Z,101315.28
2019-06-01T23:43:34.219Z,101311.67
2019-06-01T23:45:59.719Z,101307.47
2019-06-01T23:48:25.166Z,101312.46
2019-06-01T23:50:51.680Z,101305.91
2019-06-01T23:53:17.129Z,101301.95
2019-06-01T23:55:42.580Z,101298.59
2019-06-01T23:58:08.021Z,101292.20
